Time;durP1;ratioP1;P1;durP2;ratioP2;P2;SDS_P1;SDS_P2;PMS_P1;PMS_P2;Temp;Humidity;BMP_temperature;BMP_pressure;BME280_temperature;BME280_humidity;BME280_pressure;Samples;Min_cycle;Max_cycle;Signal;HPM_P1;HPM_P2
2022/03/09 00:01:53;;;;;;;27.10;16.50;;;;;;;;;;5134069;27;20446;-55
2022/03/09 00:04:22;;;;;;;24.90;15.73;;;;;;;;;;5134259;27;20401;-55
2022/03/09 00:06:48;;;;;;;25.67;15.77;;;;;;;;;;5134150;27;20412;-56
2022/03/09 00:09:14;;;;;;;28.60;15.30;;;;;;;;;;5134010;27;20409;-52
2022/03/09 00:11:43;;;;;;;33.30;16.80;;;;;;;;;;5133907;27;20397;-54
2022/03/09 00:14:09;;;;;;;25.57;15.13;;;;;;;;;;5133885;27;20893;-56
2022/03/09 00:16:35;;;;;;;26.07;15.57;;;;;;;;;;5133944;27;20408;-53
2022/03/09 00:19:02;;;;;;;31.83;15.60;;;;;;;;;;5133680;27;20568;-52
2022/03/09 00:21:28;;;;;;;30.93;16.23;;;;;;;;;;5133861;27;20419;-53
2022/03/09 00:23:54;;;;;;;25.63;15.70;;;;;;;;;;5133760;27;20404;-54
2022/03/09 00:26:20;;;;;;;27.30;15.70;;;;;;;;;;5133997;27;20436;-51
2022/03/09 00:28:46;;;;;;;25.80;15.27;;;;;;;;;;5133811;27;20761;-54
2022/03/09 00:31:12;;;;;;;24.90;14.93;;;;;;;;;;5133627;27;20904;-54
2022/03/09 00:33:38;;;;;;;24.33;15.47;;;;;;;;;;5133693;27;20888;-53
2022/03/09 00:36:05;;;;;;;28.73;15.33;;;;;;;;;;5133658;27;20787;-55
2022/03/09 00:38:31;;;;;;;24.90;15.17;;;;;;;;;;5133644;27;20404;-56
2022/03/09 00:40:57;;;;;;;28.00;13.93;;;;;;;;;;5133449;28;20815;-57
2022/03/09 00:43:23;;;;;;;24.70;14.43;;;;;;;;;;5132939;27;20752;-55
2022/03/09 00:45:49;;;;;;;26.33;14.27;;;;;;;;;;5133825;28;20408;-56
2022/03/09 00:48:15;;;;;;;21.37;13.93;;;;;;;;;;5133552;28;20820;-56
2022/03/09 00:50:47;;;;;;;24.97;14.47;;;;;;;;;;5133514;28;20912;-55
2022/03/09 00:53:13;;;;;;;25.70;14.90;;;;;;;;;;5133439;28;20949;-51
2022/03/09 00:55:39;;;;;;;24.13;14.00;;;;;;;;;;5133379;28;20412;-56
2022/03/09 00:58:06;;;;;;;24.60;14.10;;;;;;;;;;5133502;28;20876;-54
2022/03/09 01:00:32;;;;;;;25.23;14.47;;;;;;;;;;5133337;28;20463;-53
2022/03/09 01:02:58;;;;;;;26.33;14.83;;;;;;;;;;5133341;28;20541;-53
2022/03/09 01:05:24;;;;;;;26.30;14.87;;;;;;;;;;5133329;28;20445;-54
2022/03/09 01:07:49;;;;;;;27.27;14.90;;;;;;;;;;5115014;28;20777;-55
2022/03/09 01:10:15;;;;;;;21.30;13.53;;;;;;;;;;5133421;28;20400;-51
2022/03/09 01:12:42;;;;;;;22.57;13.60;;;;;;;;;;5133221;28;20984;-53
2022/03/09 01:15:08;;;;;;;21.93;13.40;;;;;;;;;;5133288;28;20403;-52
2022/03/09 01:17:34;;;;;;;24.07;13.77;;;;;;;;;;5133069;28;20800;-53
2022/03/09 01:20:06;;;;;;;20.30;13.03;;;;;;;;;;5133227;28;20484;-53
2022/03/09 01:22:35;;;;;;;22.70;13.33;;;;;;;;;;5133271;28;20411;-52
2022/03/09 01:25:01;;;;;;;21.37;14.27;;;;;;;;;;5133260;28;20396;-53
2022/03/09 01:27:27;;;;;;;29.53;14.30;;;;;;;;;;5133202;28;20483;-53
2022/03/09 01:29:53;;;;;;;25.40;14.40;;;;;;;;;;5133127;28;20436;-55
2022/03/09 01:32:22;;;;;;;21.40;14.10;;;;;;;;;;5114863;28;20428;-53
2022/03/09 01:34:48;;;;;;;22.37;13.67;;;;;;;;;;5114839;28;20422;-53
2022/03/09 01:37:14;;;;;;;26.20;14.30;;;;;;;;;;5133124;28;20788;-53
2022/03/09 01:39:40;;;;;;;22.77;14.67;;;;;;;;;;5132959;28;20459;-52
2022/03/09 01:42:06;;;;;;;24.67;14.10;;;;;;;;;;5133020;28;20816;-52
2022/03/09 01:44:32;;;;;;;24.23;13.87;;;;;;;;;;5132963;28;20406;-53
2022/03/09 01:46:58;;;;;;;21.03;14.10;;;;;;;;;;5132910;28;20412;-53
2022/03/09 01:49:25;;;;;;;22.60;13.90;;;;;;;;;;5132967;28;20404;-55
2022/03/09 01:51:52;;;;;;;25.33;14.83;;;;;;;;;;5132958;28;20408;-54
2022/03/09 01:54:18;;;;;;;27.60;15.63;;;;;;;;;;5114936;28;20420;-53
2022/03/09 01:56:44;;;;;;;30.93;15.53;;;;;;;;;;5136257;27;20746;-51
2022/03/09 01:59:12;;;;;;;29.17;15.80;;;;;;;;;;5117827;27;20543;-55
2022/03/09 02:01:38;;;;;;;25.00;15.47;;;;;;;;;;5136432;27;20407;-53
2022/03/09 02:04:05;;;;;;;27.73;15.67;;;;;;;;;;5136316;27;20407;-56
2022/03/09 02:06:32;;;;;;;22.63;14.03;;;;;;;;;;5136345;27;20499;-53
2022/03/09 02:11:43;;;;;;;24.27;14.87;;;;;;;;;;5136571;27;20466;-53
2022/03/09 02:14:28;;;;;;;22.30;14.13;;;;;;;;;;5136526;27;20446;-54
2022/03/09 02:16:55;;;;;;;25.37;14.23;;;;;;;;;;5136525;27;20395;-53
2022/03/09 02:19:21;;;;;;;21.87;13.67;;;;;;;;;;5136160;27;20758;-51
2022/03/09 02:21:48;;;;;;;25.00;14.87;;;;;;;;;;5136329;27;20460;-54
2022/03/09 02:24:14;;;;;;;23.93;14.30;;;;;;;;;;5136083;27;20404;-53
2022/03/09 02:26:41;;;;;;;25.73;13.60;;;;;;;;;;5136037;27;20397;-53
2022/03/09 02:29:07;;;;;;;26.20;13.67;;;;;;;;;;5135825;27;20410;-53
2022/03/09 02:31:36;;;;;;;21.90;12.80;;;;;;;;;;5135923;27;20834;-57
2022/03/09 02:34:02;;;;;;;24.57;13.87;;;;;;;;;;5135903;27;20479;-50
2022/03/09 02:36:28;;;;;;;22.27;13.17;;;;;;;;;;5135804;27;20479;-52
2022/03/09 02:38:54;;;;;;;21.90;12.70;;;;;;;;;;5135721;27;20435;-53
2022/03/09 02:41:20;;;;;;;20.50;12.00;;;;;;;;;;5135735;27;20971;-54
2022/03/09 02:43:46;;;;;;;20.57;13.50;;;;;;;;;;5135718;27;20396;-53
2022/03/09 02:46:12;;;;;;;21.97;13.30;;;;;;;;;;5135511;27;20400;-56
2022/03/09 02:48:38;;;;;;;20.30;12.63;;;;;;;;;;5135567;27;20920;-55
2022/03/09 02:51:04;;;;;;;22.73;13.27;;;;;;;;;;5135568;27;20443;-52
2022/03/09 02:53:30;;;;;;;20.03;12.60;;;;;;;;;;5135526;27;20424;-51
2022/03/09 02:55:56;;;;;;;18.53;12.57;;;;;;;;;;5135369;27;20844;-54
2022/03/09 02:58:23;;;;;;;20.80;12.37;;;;;;;;;;5135400;27;20730;-50
2022/03/09 03:00:49;;;;;;;18.87;12.83;;;;;;;;;;5135526;27;20463;-52
2022/03/09 03:03:15;;;;;;;21.30;12.57;;;;;;;;;;5117162;27;20853;-50
2022/03/09 03:05:42;;;;;;;22.43;12.30;;;;;;;;;;5134735;27;20494;-54
2022/03/09 03:08:08;;;;;;;20.17;12.97;;;;;;;;;;5135234;27;20407;-53
2022/03/09 03:10:34;;;;;;;21.30;12.87;;;;;;;;;;5135231;27;20404;-52
2022/03/09 03:13:00;;;;;;;21.73;12.80;;;;;;;;;;5116575;27;20464;-53
2022/03/09 03:15:26;;;;;;;21.80;13.20;;;;;;;;;;5134958;27;20422;-53
2022/03/09 03:17:52;;;;;;;18.20;12.00;;;;;;;;;;5116480;27;20459;-54
2022/03/09 03:20:18;;;;;;;21.00;12.73;;;;;;;;;;5135038;27;20469;-53
2022/03/09 03:22:44;;;;;;;25.40;13.03;;;;;;;;;;5116415;27;20896;-53
2022/03/09 03:25:13;;;;;;;22.73;12.53;;;;;;;;;;5134832;27;20416;-53
2022/03/09 03:27:39;;;;;;;18.20;11.53;;;;;;;;;;5134647;27;20495;-57
2022/03/09 03:30:05;;;;;;;21.63;13.23;;;;;;;;;;5134639;27;20451;-53
2022/03/09 03:32:31;;;;;;;20.07;12.27;;;;;;;;;;5134853;27;20464;-54
2022/03/09 03:34:57;;;;;;;18.17;12.47;;;;;;;;;;5116171;27;20428;-55
2022/03/09 03:37:23;;;;;;;28.27;10.60;;;;;;;;;;5134459;27;20411;-54
2022/03/09 03:39:49;;;;;;;18.07;11.30;;;;;;;;;;5134590;27;20927;-55
2022/03/09 03:42:15;;;;;;;16.80;11.10;;;;;;;;;;5134367;27;20468;-55
2022/03/09 03:44:41;;;;;;;16.07;11.07;;;;;;;;;;5134408;27;20532;-57
2022/03/09 03:47:07;;;;;;;18.03;10.87;;;;;;;;;;5134367;27;20507;-54
2022/03/09 03:49:33;;;;;;;16.30;11.10;;;;;;;;;;5134578;27;20408;-55
2022/03/09 03:51:59;;;;;;;16.37;10.53;;;;;;;;;;5134343;27;20400;-54
2022/03/09 03:54:25;;;;;;;16.80;10.50;;;;;;;;;;5134196;27;20408;-53
2022/03/09 03:56:51;;;;;;;17.80;10.03;;;;;;;;;;5134321;27;20576;-51
2022/03/09 03:59:17;;;;;;;16.97;10.40;;;;;;;;;;5134222;27;20414;-55
2022/03/09 04:01:43;;;;;;;16.47;9.87;;;;;;;;;;5134294;27;20488;-54
2022/03/09 04:04:12;;;;;;;13.60;9.67;;;;;;;;;;5134103;27;20404;-55
2022/03/09 04:06:38;;;;;;;17.50;10.30;;;;;;;;;;5133931;27;20411;-57
2022/03/09 04:09:04;;;;;;;15.37;10.20;;;;;;;;;;5133830;27;20400;-54
2022/03/09 04:11:30;;;;;;;15.40;9.77;;;;;;;;;;5133820;27;20400;-53
2022/03/09 04:13:56;;;;;;;13.83;10.33;;;;;;;;;;5133936;27;20400;-55
2022/03/09 04:16:22;;;;;;;16.13;9.90;;;;;;;;;;5133870;27;20414;-54
2022/03/09 04:18:48;;;;;;;16.00;10.13;;;;;;;;;;5133113;27;20452;-54
2022/03/09 04:21:14;;;;;;;17.13;10.27;;;;;;;;;;5133826;27;20474;-53
2022/03/09 04:23:40;;;;;;;17.40;9.60;;;;;;;;;;5133746;27;20396;-53
2022/03/09 04:26:10;;;;;;;15.23;9.73;;;;;;;;;;5133704;27;20460;-53
2022/03/09 04:28:36;;;;;;;20.23;10.50;;;;;;;;;;5133563;27;20407;-52
2022/03/09 04:31:02;;;;;;;14.53;9.93;;;;;;;;;;5133655;27;20408;-57
2022/03/09 04:33:28;;;;;;;16.20;9.77;;;;;;;;;;5133470;27;20753;-58
2022/03/09 04:35:54;;;;;;;12.20;9.03;;;;;;;;;;5133386;27;20515;-55
2022/03/09 04:38:20;;;;;;;27.70;10.30;;;;;;;;;;5133756;27;20479;-53
2022/03/09 04:40:46;;;;;;;19.90;10.80;;;;;;;;;;5133518;27;20554;-54
2022/03/09 04:43:12;;;;;;;17.83;11.17;;;;;;;;;;5133581;28;20404;-52
2022/03/09 04:45:38;;;;;;;16.50;10.13;;;;;;;;;;5133315;28;20461;-53
2022/03/09 04:48:04;;;;;;;15.57;10.13;;;;;;;;;;5133280;28;20404;-57
2022/03/09 04:50:30;;;;;;;16.00;9.80;;;;;;;;;;5115022;28;20772;-54
2022/03/09 04:52:56;;;;;;;16.53;10.60;;;;;;;;;;5133324;28;20499;-52
2022/03/09 04:55:22;;;;;;;19.07;11.40;;;;;;;;;;5133518;28;20765;-55
2022/03/09 04:57:48;;;;;;;15.27;10.07;;;;;;;;;;5133543;28;20418;-54
2022/03/09 05:00:14;;;;;;;18.77;11.77;;;;;;;;;;5133229;28;21086;-54
2022/03/09 05:02:40;;;;;;;17.27;10.67;;;;;;;;;;5133252;28;20480;-52
2022/03/09 05:05:07;;;;;;;20.10;11.20;;;;;;;;;;5133213;28;20471;-56
2022/03/09 05:07:33;;;;;;;19.47;10.90;;;;;;;;;;5133283;28;20401;-58
2022/03/09 05:09:59;;;;;;;17.00;11.10;;;;;;;;;;5133187;28;20411;-57
2022/03/09 05:12:25;;;;;;;20.53;11.70;;;;;;;;;;5133134;28;20403;-51
2022/03/09 05:14:51;;;;;;;21.17;12.50;;;;;;;;;;5114758;28;20424;-54
2022/03/09 05:17:17;;;;;;;24.90;11.37;;;;;;;;;;5133119;28;20442;-53
2022/03/09 05:19:43;;;;;;;15.80;10.80;;;;;;;;;;5133155;28;21004;-52
2022/03/09 05:22:09;;;;;;;18.60;11.93;;;;;;;;;;5133021;28;20440;-57
2022/03/09 05:24:35;;;;;;;20.07;11.30;;;;;;;;;;5132954;28;20442;-55
2022/03/09 05:27:04;;;;;;;23.83;12.97;;;;;;;;;;5133138;28;20412;-52
2022/03/09 05:29:30;;;;;;;19.50;11.10;;;;;;;;;;5134384;27;20423;-56
2022/03/09 05:31:57;;;;;;;25.13;11.83;;;;;;;;;;5136817;27;20935;-58
2022/03/09 05:34:23;;;;;;;20.83;12.03;;;;;;;;;;5135415;27;20904;-58
2022/03/09 05:36:49;;;;;;;19.50;12.47;;;;;;;;;;5136097;27;20405;-58
2022/03/09 05:39:15;;;;;;;19.67;11.67;;;;;;;;;;5117410;27;20424;-58
2022/03/09 05:41:41;;;;;;;19.37;11.87;;;;;;;;;;5117891;27;20419;-56
2022/03/09 05:44:10;;;;;;;23.83;12.93;;;;;;;;;;5135860;27;20407;-60
2022/03/09 05:46:36;;;;;;;24.50;12.33;;;;;;;;;;5117316;27;20458;-60
2022/03/09 05:49:03;;;;;;;21.43;11.30;;;;;;;;;;5135953;27;20415;-58
2022/03/09 05:51:35;;;;;;;22.90;13.17;;;;;;;;;;5135836;27;20423;-59
2022/03/09 05:54:01;;;;;;;19.80;11.37;;;;;;;;;;5117164;27;20753;-54
2022/03/09 05:56:27;;;;;;;24.77;12.83;;;;;;;;;;5135508;27;20419;-59
2022/03/09 05:58:53;;;;;;;21.20;13.47;;;;;;;;;;5135462;27;20404;-59
2022/03/09 06:01:21;;;;;;;21.47;12.57;;;;;;;;;;5135612;27;20471;-58
2022/03/09 06:03:47;;;;;;;22.50;12.70;;;;;;;;;;5135538;27;20403;-60
2022/03/09 06:06:13;;;;;;;22.87;13.47;;;;;;;;;;5136172;27;20453;-53
2022/03/09 06:08:39;;;;;;;18.90;12.50;;;;;;;;;;5136017;27;20400;-55
2022/03/09 06:11:05;;;;;;;25.60;12.40;;;;;;;;;;5136056;27;20407;-53
2022/03/09 06:13:31;;;;;;;24.17;13.50;;;;;;;;;;5135883;27;20433;-55
2022/03/09 06:15:57;;;;;;;19.17;13.10;;;;;;;;;;5136216;27;20412;-55
2022/03/09 06:18:26;;;;;;;19.93;12.33;;;;;;;;;;5136008;27;20523;-55
2022/03/09 06:20:52;;;;;;;22.27;13.17;;;;;;;;;;5135589;27;20537;-58
2022/03/09 06:23:18;;;;;;;22.53;12.87;;;;;;;;;;5117599;27;20448;-53
2022/03/09 06:25:44;;;;;;;46.97;13.93;;;;;;;;;;5135942;27;20439;-57
2022/03/09 06:28:10;;;;;;;32.03;14.70;;;;;;;;;;5135777;27;21044;-57
2022/03/09 06:30:36;;;;;;;22.70;12.80;;;;;;;;;;5135700;27;20561;-58
2022/03/09 06:33:02;;;;;;;21.90;14.10;;;;;;;;;;5135837;27;20913;-58
2022/03/09 06:35:28;;;;;;;23.90;13.87;;;;;;;;;;5135601;27;20408;-59
2022/03/09 06:37:54;;;;;;;26.70;13.47;;;;;;;;;;5135711;27;20490;-57
2022/03/09 06:40:23;;;;;;;27.77;15.00;;;;;;;;;;5134808;27;20460;-59
2022/03/09 06:42:49;;;;;;;25.00;13.87;;;;;;;;;;5135768;27;20388;-53
2022/03/09 06:45:16;;;;;;;27.80;14.40;;;;;;;;;;5135429;27;20431;-54
2022/03/09 06:47:42;;;;;;;25.20;13.90;;;;;;;;;;5135516;27;20404;-56
2022/03/09 06:50:08;;;;;;;26.03;14.23;;;;;;;;;;5135366;27;20410;-57
2022/03/09 06:52:35;;;;;;;23.20;12.43;;;;;;;;;;5135443;27;20956;-53
2022/03/09 06:55:07;;;;;;;25.87;12.80;;;;;;;;;;5116755;27;20408;-53
2022/03/09 06:57:34;;;;;;;22.63;12.97;;;;;;;;;;5135422;27;20400;-55
2022/03/09 07:00:00;;;;;;;21.87;13.40;;;;;;;;;;5135438;27;20473;-56
2022/03/09 07:02:27;;;;;;;23.30;12.50;;;;;;;;;;5135434;27;20420;-53
2022/03/09 07:04:53;;;;;;;19.73;13.10;;;;;;;;;;5135346;27;20910;-54
2022/03/09 07:07:19;;;;;;;19.27;13.00;;;;;;;;;;5116881;27;20404;-56
2022/03/09 07:09:45;;;;;;;20.80;12.70;;;;;;;;;;5134988;27;20867;-57
2022/03/09 07:12:11;;;;;;;19.20;12.40;;;;;;;;;;5135212;27;20491;-54
2022/03/09 07:14:37;;;;;;;20.00;12.80;;;;;;;;;;5134910;27;20404;-55
2022/03/09 07:17:03;;;;;;;21.30;12.67;;;;;;;;;;5134724;27;20436;-55
2022/03/09 07:19:29;;;;;;;20.40;12.47;;;;;;;;;;5134845;27;20412;-55
2022/03/09 07:21:55;;;;;;;21.17;12.43;;;;;;;;;;5116266;27;20784;-55
2022/03/09 07:24:22;;;;;;;20.53;12.33;;;;;;;;;;5134762;27;20404;-56
2022/03/09 07:26:48;;;;;;;21.83;12.57;;;;;;;;;;5116577;27;20415;-52
2022/03/09 07:29:14;;;;;;;27.70;14.00;;;;;;;;;;5135426;27;20787;-56
2022/03/09 07:31:40;;;;;;;26.37;14.00;;;;;;;;;;5116263;27;20460;-55
2022/03/09 07:34:06;;;;;;;22.00;13.23;;;;;;;;;;5134720;27;20422;-59
2022/03/09 07:36:32;;;;;;;22.47;12.77;;;;;;;;;;5134572;27;20429;-56
2022/03/09 07:38:58;;;;;;;24.10;14.17;;;;;;;;;;5115892;27;20416;-53
2022/03/09 07:41:25;;;;;;;22.23;13.67;;;;;;;;;;5134323;27;20495;-54
2022/03/09 07:43:51;;;;;;;18.60;13.30;;;;;;;;;;5134300;27;20892;-55
2022/03/09 07:46:26;;;;;;;21.70;13.70;;;;;;;;;;5135208;27;20407;-54
2022/03/09 07:48:52;;;;;;;25.60;14.63;;;;;;;;;;5134362;27;20456;-56
2022/03/09 07:51:18;;;;;;;26.33;14.43;;;;;;;;;;5134373;27;20407;-54
2022/03/09 07:53:45;;;;;;;24.87;13.20;;;;;;;;;;5134249;27;20405;-55
2022/03/09 07:56:11;;;;;;;22.73;13.47;;;;;;;;;;5133977;27;20410;-56
2022/03/09 07:58:37;;;;;;;21.83;13.67;;;;;;;;;;5134096;27;20422;-57
2022/03/09 08:01:03;;;;;;;23.70;13.67;;;;;;;;;;5115093;27;20471;-55
2022/03/09 08:03:30;;;;;;;22.33;13.40;;;;;;;;;;5134027;27;20900;-55
2022/03/09 08:05:56;;;;;;;20.50;12.93;;;;;;;;;;5134145;27;20461;-54
2022/03/09 08:08:22;;;;;;;20.67;13.63;;;;;;;;;;5115518;27;20411;-54
2022/03/09 08:10:48;;;;;;;21.00;13.10;;;;;;;;;;5134054;27;20416;-57
2022/03/09 08:13:14;;;;;;;26.33;13.37;;;;;;;;;;5115285;27;20401;-54
2022/03/09 08:15:40;;;;;;;30.80;14.00;;;;;;;;;;5115399;27;20408;-54
2022/03/09 08:18:06;;;;;;;23.13;13.90;;;;;;;;;;5133621;27;20982;-53
2022/03/09 08:20:32;;;;;;;17.70;12.90;;;;;;;;;;5133642;27;20460;-56
2022/03/09 08:22:58;;;;;;;22.80;13.80;;;;;;;;;;5133696;27;20477;-56
2022/03/09 08:25:25;;;;;;;22.63;13.23;;;;;;;;;;5133232;27;20932;-54
2022/03/09 08:27:51;;;;;;;30.83;14.03;;;;;;;;;;5133494;27;20892;-56
2022/03/09 08:30:18;;;;;;;21.93;13.13;;;;;;;;;;5133997;27;20971;-63
2022/03/09 08:32:46;;;;;;;20.13;14.23;;;;;;;;;;5130821;27;20476;-56
2022/03/09 08:35:12;;;;;;;19.17;13.07;;;;;;;;;;5132115;27;20423;-52
2022/03/09 08:37:39;;;;;;;18.87;13.20;;;;;;;;;;5132460;27;20415;-56
2022/03/09 08:40:05;;;;;;;20.00;13.80;;;;;;;;;;5114070;27;20981;-55
2022/03/09 08:42:31;;;;;;;23.50;14.20;;;;;;;;;;5132245;27;20487;-54
2022/03/09 08:44:57;;;;;;;18.13;12.90;;;;;;;;;;5132571;28;20403;-56
2022/03/09 08:47:23;;;;;;;24.10;13.87;;;;;;;;;;5132495;28;20418;-56
2022/03/09 08:49:49;;;;;;;22.57;14.23;;;;;;;;;;5114453;28;20461;-57
2022/03/09 08:52:15;;;;;;;26.00;13.90;;;;;;;;;;5114422;28;20745;-59
2022/03/09 08:54:41;;;;;;;27.63;15.13;;;;;;;;;;5114358;28;20458;-54
2022/03/09 08:57:08;;;;;;;21.57;12.80;;;;;;;;;;5132620;28;20981;-55
2022/03/09 08:59:34;;;;;;;29.90;14.10;;;;;;;;;;5129408;28;20733;-54
2022/03/09 09:02:00;;;;;;;23.17;14.83;;;;;;;;;;5120979;28;20428;-56
2022/03/09 09:04:26;;;;;;;24.23;14.97;;;;;;;;;;5106289;27;20450;-57
2022/03/09 09:06:52;;;;;;;21.50;14.40;;;;;;;;;;5136689;27;20447;-57
2022/03/09 09:09:20;;;;;;;24.63;14.63;;;;;;;;;;5136589;27;20407;-56
2022/03/09 09:11:46;;;;;;;25.73;15.47;;;;;;;;;;5136981;27;20491;-54
2022/03/09 09:14:13;;;;;;;25.83;15.80;;;;;;;;;;5136469;27;20452;-54
2022/03/09 09:16:41;;;;;;;23.47;15.37;;;;;;;;;;5112703;28;20423;-54
2022/03/09 09:19:08;;;;;;;23.70;15.80;;;;;;;;;;5115798;28;20448;-54
2022/03/09 09:21:34;;;;;;;27.67;16.70;;;;;;;;;;5116124;28;20471;-58
2022/03/09 09:24:00;;;;;;;25.17;17.30;;;;;;;;;;5115953;28;20495;-56
2022/03/09 09:26:29;;;;;;;25.43;16.27;;;;;;;;;;5115495;28;20423;-55
2022/03/09 09:28:55;;;;;;;22.30;15.17;;;;;;;;;;5115638;28;20450;-55
2022/03/09 09:31:21;;;;;;;29.43;16.00;;;;;;;;;;5115661;28;20401;-56
2022/03/09 09:33:47;;;;;;;23.83;15.80;;;;;;;;;;5115759;28;20477;-56
2022/03/09 09:36:13;;;;;;;17.67;13.27;;;;;;;;;;5097043;28;20421;-58
2022/03/09 09:38:39;;;;;;;26.30;13.10;;;;;;;;;;5115590;28;20753;-55
2022/03/09 09:41:08;;;;;;;18.63;12.30;;;;;;;;;;5130104;27;20929;-55
2022/03/09 09:43:34;;;;;;;15.97;11.70;;;;;;;;;;5135868;27;20407;-59
2022/03/09 09:46:01;;;;;;;20.50;13.20;;;;;;;;;;5117686;27;20461;-58
2022/03/09 09:48:27;;;;;;;23.00;12.80;;;;;;;;;;5135878;27;20404;-58
2022/03/09 09:50:54;;;;;;;16.67;13.20;;;;;;;;;;5135846;27;20415;-57
2022/03/09 09:53:21;;;;;;;18.17;13.10;;;;;;;;;;5135956;27;20892;-56
2022/03/09 09:55:47;;;;;;;18.60;13.70;;;;;;;;;;5136029;27;20418;-57
2022/03/09 09:58:13;;;;;;;22.47;13.03;;;;;;;;;;5135653;27;20479;-57
2022/03/09 10:00:39;;;;;;;18.30;12.33;;;;;;;;;;5135691;27;20512;-59
2022/03/09 10:03:08;;;;;;;16.83;12.00;;;;;;;;;;5135702;27;20427;-58
2022/03/09 10:05:35;;;;;;;16.60;11.87;;;;;;;;;;5136056;27;20404;-58
2022/03/09 10:08:03;;;;;;;16.80;12.27;;;;;;;;;;5135486;27;20896;-58
2022/03/09 10:10:32;;;;;;;18.07;10.87;;;;;;;;;;5135493;27;20409;-58
2022/03/09 10:13:14;;;;;;;19.67;11.23;;;;;;;;;;5117021;27;20412;-56
2022/03/09 10:15:40;;;;;;;15.70;10.00;;;;;;;;;;5134245;27;20411;-54
2022/03/09 10:18:23;;;;;;;17.30;11.50;;;;;;;;;;5135065;27;20544;-56
2022/03/09 10:20:50;;;;;;;11.57;9.70;;;;;;;;;;5135453;27;20471;-55
2022/03/09 10:23:17;;;;;;;16.03;9.33;;;;;;;;;;5135589;27;20423;-59
2022/03/09 10:25:43;;;;;;;12.40;9.40;;;;;;;;;;5135112;27;20892;-57
2022/03/09 10:28:11;;;;;;;11.53;9.33;;;;;;;;;;5134914;27;20453;-57
2022/03/09 10:30:39;;;;;;;12.47;8.83;;;;;;;;;;5135409;27;20802;-57
2022/03/09 10:33:09;;;;;;;9.87;8.83;;;;;;;;;;5135014;27;20404;-59
2022/03/09 10:35:49;;;;;;;11.63;9.30;;;;;;;;;;5134839;27;20483;-60
2022/03/09 10:38:14;;;;;;;22.50;10.20;;;;;;;;;;5115837;27;20888;-56
2022/03/09 10:40:43;;;;;;;13.37;9.70;;;;;;;;;;5134640;27;20655;-55
2022/03/09 10:43:14;;;;;;;13.70;9.13;;;;;;;;;;5134946;27;20409;-57
2022/03/09 10:45:59;;;;;;;14.43;9.80;;;;;;;;;;5134722;27;20419;-58
2022/03/09 10:48:29;;;;;;;18.07;8.87;;;;;;;;;;5134574;27;20404;-55
2022/03/09 10:50:55;;;;;;;13.50;9.20;;;;;;;;;;5134734;27;20752;-54
2022/03/09 10:53:21;;;;;;;11.43;9.07;;;;;;;;;;5134538;27;20404;-55
2022/03/09 10:55:49;;;;;;;12.60;9.60;;;;;;;;;;5134748;27;20411;-55
2022/03/09 10:58:23;;;;;;;15.23;9.00;;;;;;;;;;5134638;27;20415;-55
2022/03/09 11:00:50;;;;;;;11.10;9.00;;;;;;;;;;5116249;27;20810;-57
2022/03/09 11:03:17;;;;;;;13.17;9.70;;;;;;;;;;5134761;27;20464;-55
2022/03/09 11:05:50;;;;;;;13.80;9.33;;;;;;;;;;5134446;27;20404;-55
2022/03/09 11:08:17;;;;;;;9.03;8.13;;;;;;;;;;5115892;27;20764;-54
2022/03/09 11:10:45;;;;;;;19.10;9.50;;;;;;;;;;5134460;27;20407;-55
2022/03/09 11:13:12;;;;;;;9.47;8.13;;;;;;;;;;5134351;27;20409;-55
2022/03/09 11:15:39;;;;;;;8.90;8.00;;;;;;;;;;5134253;27;20504;-56
2022/03/09 11:18:06;;;;;;;15.83;8.43;;;;;;;;;;5134109;27;20451;-54
2022/03/09 11:20:32;;;;;;;18.13;9.10;;;;;;;;;;5133896;27;20516;-54
2022/03/09 11:22:58;;;;;;;10.90;8.60;;;;;;;;;;5134170;27;20732;-56
2022/03/09 11:25:25;;;;;;;10.90;8.70;;;;;;;;;;5134081;27;20416;-56
2022/03/09 11:27:53;;;;;;;12.93;9.07;;;;;;;;;;5133771;27;20456;-55
2022/03/09 11:30:24;;;;;;;14.27;8.67;;;;;;;;;;5133728;27;20414;-56
2022/03/09 11:32:51;;;;;;;10.97;8.43;;;;;;;;;;5134015;27;20477;-59
2022/03/09 11:35:30;;;;;;;12.40;7.90;;;;;;;;;;5115739;27;20442;-57
2022/03/09 11:37:56;;;;;;;10.47;8.87;;;;;;;;;;5115477;27;20713;-55
2022/03/09 11:40:25;;;;;;;11.73;8.47;;;;;;;;;;5133494;27;20448;-56
2022/03/09 11:42:52;;;;;;;10.13;8.97;;;;;;;;;;5134096;27;20419;-56
2022/03/09 11:45:20;;;;;;;10.23;8.80;;;;;;;;;;5133721;27;20396;-54
2022/03/09 11:47:56;;;;;;;11.20;9.37;;;;;;;;;;5133445;27;20433;-56
2022/03/09 11:50:22;;;;;;;11.43;8.60;;;;;;;;;;5118605;27;20444;-57
2022/03/09 11:52:55;;;;;;;10.47;8.40;;;;;;;;;;5132851;27;20415;-59
2022/03/09 11:55:21;;;;;;;13.07;9.30;;;;;;;;;;5133075;27;20881;-55
2022/03/09 11:57:47;;;;;;;9.90;8.70;;;;;;;;;;5115341;27;20428;-60
2022/03/09 12:00:14;;;;;;;10.57;8.73;;;;;;;;;;5133369;27;20490;-59
2022/03/09 12:02:44;;;;;;;10.53;8.83;;;;;;;;;;5133231;27;20488;-60
2022/03/09 12:05:30;;;;;;;11.37;8.97;;;;;;;;;;5115470;27;20420;-58
2022/03/09 12:07:57;;;;;;;9.80;8.60;;;;;;;;;;5133544;27;20423;-61
2022/03/09 12:10:45;;;;;;;10.80;8.63;;;;;;;;;;5133196;27;20500;-60
2022/03/09 12:13:14;;;;;;;11.30;8.43;;;;;;;;;;5133557;27;20396;-60
2022/03/09 12:15:58;;;;;;;9.63;8.30;;;;;;;;;;5115418;27;20416;-56
2022/03/09 12:18:36;;;;;;;9.67;8.63;;;;;;;;;;5133436;27;20462;-55
2022/03/09 12:21:03;;;;;;;10.30;8.33;;;;;;;;;;5114128;27;20471;-55
2022/03/09 12:23:29;;;;;;;11.17;8.97;;;;;;;;;;5133528;27;20765;-56
2022/03/09 12:25:58;;;;;;;10.00;8.70;;;;;;;;;;5133637;27;20537;-56
2022/03/09 12:28:24;;;;;;;9.33;8.33;;;;;;;;;;5133591;27;20476;-58
2022/03/09 12:30:51;;;;;;;11.83;8.70;;;;;;;;;;5114319;27;20496;-57
2022/03/09 12:33:29;;;;;;;10.37;8.33;;;;;;;;;;5115010;27;20446;-58
2022/03/09 12:36:10;;;;;;;9.10;8.30;;;;;;;;;;5133581;27;20515;-57
2022/03/09 12:38:39;;;;;;;12.87;9.40;;;;;;;;;;5132752;27;20425;-57
2022/03/09 12:41:07;;;;;;;9.33;8.33;;;;;;;;;;5132473;27;20471;-57
2022/03/09 12:43:59;;;;;;;14.73;9.80;;;;;;;;;;5133275;27;20439;-57
2022/03/09 12:46:25;;;;;;;9.93;8.80;;;;;;;;;;5128754;28;20420;-55
2022/03/09 12:49:01;;;;;;;11.87;8.57;;;;;;;;;;5115126;28;20461;-55
2022/03/09 12:51:27;;;;;;;8.73;7.83;;;;;;;;;;5132538;28;20415;-58
2022/03/09 12:53:53;;;;;;;9.67;8.67;;;;;;;;;;5133047;28;20400;-57
2022/03/09 12:56:21;;;;;;;11.40;8.60;;;;;;;;;;5115119;28;20405;-55
2022/03/09 12:58:48;;;;;;;9.30;8.40;;;;;;;;;;5130842;28;20507;-60
2022/03/09 13:01:14;;;;;;;11.20;9.03;;;;;;;;;;5132663;28;20470;-57
2022/03/09 13:03:41;;;;;;;11.93;9.30;;;;;;;;;;5132301;28;20416;-58
2022/03/09 13:06:23;;;;;;;9.33;8.33;;;;;;;;;;5132299;28;20416;-56
2022/03/09 13:08:49;;;;;;;10.20;8.80;;;;;;;;;;5125559;28;20875;-57
2022/03/09 13:11:32;;;;;;;14.07;9.20;;;;;;;;;;5114020;28;20411;-57
2022/03/09 13:13:59;;;;;;;11.23;8.30;;;;;;;;;;5114416;28;20927;-61
2022/03/09 13:16:26;;;;;;;9.00;8.10;;;;;;;;;;5132434;28;20396;-56
2022/03/09 13:19:00;;;;;;;9.07;8.10;;;;;;;;;;5132303;28;20456;-55
2022/03/09 13:21:27;;;;;;;9.77;8.70;;;;;;;;;;5132561;28;20559;-57
2022/03/09 13:23:58;;;;;;;8.90;8.00;;;;;;;;;;5131754;28;20411;-56
2022/03/09 13:26:25;;;;;;;10.20;9.07;;;;;;;;;;5111829;28;20408;-57
2022/03/09 13:28:55;;;;;;;11.20;9.40;;;;;;;;;;5111848;28;20409;-56
2022/03/09 13:31:21;;;;;;;8.93;8.13;;;;;;;;;;5112308;28;20405;-54
2022/03/09 13:33:49;;;;;;;14.10;9.13;;;;;;;;;;5132191;28;20422;-55
2022/03/09 13:36:18;;;;;;;18.47;8.80;;;;;;;;;;5132209;28;20436;-54
2022/03/09 13:38:54;;;;;;;12.07;9.27;;;;;;;;;;5132158;28;20765;-55
2022/03/09 13:41:20;;;;;;;9.03;8.13;;;;;;;;;;5131970;28;20788;-56
2022/03/09 13:43:47;;;;;;;14.23;9.00;;;;;;;;;;5132205;28;20491;-56
2022/03/09 13:46:14;;;;;;;12.17;9.40;;;;;;;;;;5132030;28;20418;-55
2022/03/09 13:48:40;;;;;;;10.73;8.40;;;;;;;;;;5113661;28;20934;-54
2022/03/09 13:51:07;;;;;;;13.30;9.53;;;;;;;;;;5134699;27;20498;-58
2022/03/09 13:53:37;;;;;;;9.90;8.90;;;;;;;;;;5117057;27;20411;-57
2022/03/09 13:56:15;;;;;;;11.87;8.93;;;;;;;;;;5117291;27;20416;-56
2022/03/09 13:58:41;;;;;;;10.53;9.33;;;;;;;;;;5135890;27;20402;-53
2022/03/09 14:01:08;;;;;;;11.73;8.40;;;;;;;;;;5135587;27;20478;-55
2022/03/09 14:03:40;;;;;;;14.90;8.93;;;;;;;;;;5135373;27;20400;-57
2022/03/09 14:06:18;;;;;;;11.60;8.67;;;;;;;;;;5135264;27;20407;-57
2022/03/09 14:08:45;;;;;;;9.90;8.93;;;;;;;;;;5117205;27;20491;-55
2022/03/09 14:11:19;;;;;;;12.17;8.73;;;;;;;;;;5135600;27;20404;-59
2022/03/09 14:14:01;;;;;;;9.83;8.27;;;;;;;;;;5135268;27;20912;-59
2022/03/09 14:17:02;;;;;;;12.63;8.83;;;;;;;;;;5135063;27;20530;-58
2022/03/09 14:19:28;;;;;;;9.30;8.30;;;;;;;;;;5031490;28;20451;-62
2022/03/09 14:21:57;;;;;;;9.87;8.80;;;;;;;;;;5096554;27;20467;-57
2022/03/09 14:24:24;;;;;;;12.90;8.50;;;;;;;;;;5135243;27;20898;-58
2022/03/09 14:26:52;;;;;;;12.43;8.33;;;;;;;;;;5135037;27;20438;-57